createdAt,value
2018-05-21T00:00:54.033Z,4.60
2018-05-21T00:03:21.519Z,4.23
2018-05-21T00:05:49.753Z,4.77
2018-05-21T00:08:17.227Z,4.30
2018-05-21T00:10:44.700Z,4.70
2018-05-21T00:13:12.928Z,4.90
2018-05-21T00:15:40.484Z,4.10
2018-05-21T00:18:07.949Z,4.80
2018-05-21T00:20:35.429Z,4.13
2018-05-21T00:23:02.901Z,4.50
2018-05-21T00:25:31.129Z,4.40
2018-05-21T00:27:58.598Z,4.23
2018-05-21T00:30:26.076Z,3.97
2018-05-21T00:32:53.633Z,4.17
2018-05-21T00:35:21.092Z,4.10
2018-05-21T00:37:48.639Z,3.63
2018-05-21T00:40:16.104Z,4.20
2018-05-21T00:42:43.561Z,4.20
2018-05-21T00:45:11.037Z,4.27
2018-05-21T00:47:39.271Z,3.50
2018-05-21T00:50:06.731Z,4.50
2018-05-21T00:52:34.203Z,4.60
2018-05-21T00:55:14.393Z,4.40
2018-05-21T00:57:41.906Z,4.53
2018-05-21T01:00:09.363Z,4.67
2018-05-21T01:02:36.834Z,4.37
2018-05-21T01:05:05.078Z,4.40
2018-05-21T01:07:32.552Z,4.93
2018-05-21T01:10:00.117Z,4.87
2018-05-21T01:12:27.618Z,4.67
2018-05-21T01:14:55.208Z,5.07
2018-05-21T01:17:22.685Z,4.37
2018-05-21T01:19:50.156Z,5.20
2018-05-21T01:22:18.397Z,4.90
2018-05-21T01:24:45.860Z,4.63
2018-05-21T01:27:13.348Z,4.73
2018-05-21T01:29:41.569Z,4.70
2018-05-21T01:32:09.029Z,4.40
2018-05-21T01:34:36.505Z,4.77
2018-05-21T01:37:04.725Z,4.37
2018-05-21T01:39:32.194Z,4.87
2018-05-21T01:41:59.657Z,4.70
2018-05-21T01:44:27.122Z,4.80
2018-05-21T01:46:54.581Z,4.60
2018-05-21T01:49:22.054Z,4.40
2018-05-21T01:51:49.516Z,4.60
2018-05-21T01:54:16.986Z,4.77
2018-05-21T01:56:44.462Z,4.90
2018-05-21T01:59:12.717Z,4.20
2018-05-21T02:01:40.178Z,5.10
2018-05-21T02:04:07.658Z,4.40
2018-05-21T02:06:35.881Z,3.80
2018-05-21T02:09:03.340Z,4.53
2018-05-21T02:11:30.817Z,4.13
2018-05-21T02:13:59.041Z,3.80
2018-05-21T02:16:26.513Z,4.43
2018-05-21T02:18:53.997Z,4.40
2018-05-21T02:21:21.463Z,3.80
2018-05-21T02:23:49.025Z,4.43
2018-05-21T02:26:16.500Z,4.80
2018-05-21T02:28:44.729Z,4.60
2018-05-21T02:31:12.186Z,4.40
2018-05-21T02:33:39.665Z,4.40
2018-05-21T02:36:07.884Z,3.90
2018-05-21T02:38:35.368Z,4.50
2018-05-21T02:41:02.822Z,4.10
2018-05-21T02:43:30.280Z,4.40
2018-05-21T02:45:57.753Z,4.53
2018-05-21T02:48:25.216Z,4.23
2018-05-21T02:50:52.685Z,4.00
2018-05-21T02:53:20.157Z,3.77
2018-05-21T02:55:48.393Z,4.17
2018-05-21T02:58:15.849Z,3.83
2018-05-21T03:00:43.317Z,3.33
2018-05-21T03:03:10.785Z,4.53
2018-05-21T03:05:38.232Z,4.30
2018-05-21T03:08:05.797Z,3.93
2018-05-21T03:10:33.265Z,4.00
2018-05-21T03:13:01.496Z,4.50
2018-05-21T03:15:28.968Z,4.43
2018-05-21T03:17:56.435Z,4.10
2018-05-21T03:20:23.887Z,4.30
2018-05-21T03:22:51.401Z,4.20
2018-05-21T03:25:18.865Z,4.80
2018-05-21T03:27:46.321Z,4.00
2018-05-21T03:30:13.873Z,4.50
2018-05-21T03:32:41.338Z,4.90
2018-05-21T03:35:08.793Z,4.80
2018-05-21T03:37:36.269Z,4.77
2018-05-21T03:40:03.740Z,3.83
2018-05-21T03:42:31.204Z,4.27
2018-05-21T03:44:58.688Z,4.80
2018-05-21T03:47:26.922Z,4.43
2018-05-21T03:49:54.383Z,5.03
2018-05-21T03:52:21.860Z,4.57
2018-05-21T03:54:50.085Z,4.80
2018-05-21T03:57:17.545Z,4.20
2018-05-21T03:59:56.949Z,4.80
2018-05-21T04:02:36.358Z,4.30
2018-05-21T04:05:03.838Z,4.63
2018-05-21T04:07:32.057Z,4.23
2018-05-21T04:09:59.517Z,4.67
2018-05-21T04:12:26.988Z,4.47
2018-05-21T04:14:55.308Z,4.73
2018-05-21T04:17:22.774Z,4.10
2018-05-21T04:19:50.253Z,5.10
2018-05-21T04:22:17.705Z,3.90
2018-05-21T04:24:45.161Z,3.97
2018-05-21T04:27:12.632Z,4.10
2018-05-21T04:29:40.093Z,4.20
2018-05-21T04:32:07.549Z,3.73
2018-05-21T04:34:35.033Z,4.13
2018-05-21T04:37:03.254Z,3.93
2018-05-21T04:39:30.729Z,4.00
2018-05-21T04:41:58.196Z,3.83
2018-05-21T04:44:25.662Z,3.30
2018-05-21T04:46:53.141Z,4.13
2018-05-21T04:49:21.390Z,3.57
2018-05-21T04:51:48.848Z,4.40
2018-05-21T04:54:16.320Z,4.07
2018-05-21T04:56:43.817Z,3.10
2018-05-21T04:59:11.290Z,3.73
2018-05-21T05:01:38.753Z,3.93
2018-05-21T05:04:06.228Z,3.87
2018-05-21T05:06:33.705Z,3.90
2018-05-21T05:09:01.164Z,3.10
2018-05-21T05:11:29.406Z,3.70
2018-05-21T05:13:56.859Z,3.67
2018-05-21T05:16:24.312Z,3.67
2018-05-21T05:18:51.798Z,3.23
2018-05-21T05:21:19.257Z,3.90
2018-05-21T05:23:46.741Z,3.80
2018-05-21T05:26:14.206Z,3.70
2018-05-21T05:28:41.676Z,3.63
2018-05-21T05:31:09.154Z,3.90
2018-05-21T05:33:36.609Z,3.80
2018-05-21T05:36:04.153Z,4.53
2018-05-21T05:38:31.599Z,4.70
2018-05-21T05:40:59.057Z,3.80
2018-05-21T05:43:26.521Z,4.93
2018-05-21T05:45:54.000Z,4.50
2018-05-21T05:48:21.453Z,3.70
2018-05-21T05:50:48.913Z,3.90
2018-05-21T05:53:16.392Z,4.13
2018-05-21T05:55:43.895Z,4.20
2018-05-21T05:58:11.352Z,3.37
2018-05-21T06:00:38.825Z,3.40
2018-05-21T06:03:06.295Z,3.80
2018-05-21T06:05:33.755Z,3.60
2018-05-21T06:08:01.233Z,3.70
2018-05-21T06:10:28.701Z,4.10
2018-05-21T06:12:56.928Z,3.47
2018-05-21T06:15:24.397Z,3.90
2018-05-21T06:17:51.865Z,3.90
2018-05-21T06:20:19.336Z,4.40
2018-05-21T06:22:46.817Z,3.60
2018-05-21T06:25:14.276Z,3.90
2018-05-21T06:27:41.749Z,3.33
2018-05-21T06:30:09.209Z,3.57
2018-05-21T06:32:36.665Z,3.97
2018-05-21T06:35:04.136Z,3.87
2018-05-21T06:37:31.593Z,4.00
2018-05-21T06:39:59.061Z,3.40
2018-05-21T06:42:26.544Z,3.50
2018-05-21T06:44:54.774Z,3.67
2018-05-21T06:47:22.303Z,3.20
2018-05-21T06:49:49.824Z,3.73
2018-05-21T06:52:17.388Z,3.60
2018-05-21T06:54:44.862Z,3.53
2018-05-21T06:57:13.104Z,4.07
2018-05-21T06:59:40.560Z,3.40
2018-05-21T07:02:08.022Z,3.53
2018-05-21T07:04:35.497Z,3.60
2018-05-21T07:07:03.741Z,3.57
2018-05-21T07:09:31.198Z,3.33
2018-05-21T07:11:58.684Z,3.80
2018-05-21T07:14:26.914Z,4.17
2018-05-21T07:16:54.369Z,3.70
2018-05-21T07:19:21.866Z,3.93
2018-05-21T07:21:49.321Z,3.70
2018-05-21T07:24:16.796Z,3.97
2018-05-21T07:26:45.021Z,3.93
2018-05-21T07:29:12.525Z,3.80
2018-05-21T07:31:40.769Z,3.87
2018-05-21T07:34:08.229Z,3.33
2018-05-21T07:36:36.359Z,3.80
2018-05-21T07:39:03.846Z,3.87
2018-05-21T07:41:31.306Z,3.60
2018-05-21T07:43:58.769Z,3.53
2018-05-21T07:46:26.333Z,3.57
2018-05-21T07:48:55.304Z,3.37
2018-05-21T07:51:22.781Z,3.93
2018-05-21T07:53:50.255Z,3.40
2018-05-21T07:56:17.716Z,3.40
2018-05-21T07:58:45.951Z,2.83
2018-05-21T08:01:14.221Z,3.40
2018-05-21T08:03:42.389Z,3.10
2018-05-21T08:06:09.857Z,3.10
2018-05-21T08:08:40.221Z,3.57
2018-05-21T08:11:08.528Z,3.20
2018-05-21T08:13:36.806Z,3.77
2018-05-21T08:16:04.873Z,3.40
2018-05-21T08:18:32.945Z,3.37
2018-05-21T08:21:05.262Z,2.93
2018-05-21T08:23:32.717Z,3.73
2018-05-21T08:26:00.894Z,3.87
2018-05-21T08:28:29.842Z,3.10
2018-05-21T08:31:02.946Z,3.70
2018-05-21T08:33:31.414Z,3.67
2018-05-21T08:35:58.873Z,3.53
2018-05-21T08:38:27.243Z,3.93
2018-05-21T08:40:54.741Z,3.77
2018-05-21T08:43:22.826Z,3.53
2018-05-21T08:45:51.840Z,4.27
2018-05-21T08:48:19.663Z,4.00
2018-05-21T08:50:47.095Z,3.70
2018-05-21T08:53:14.590Z,4.10
2018-05-21T08:55:42.202Z,3.50
2018-05-21T08:58:10.463Z,3.50
2018-05-21T09:00:39.077Z,3.87
2018-05-21T09:03:07.394Z,3.67
2018-05-21T09:05:36.427Z,4.03
2018-05-21T09:08:04.757Z,4.10
2018-05-21T09:10:33.986Z,3.77
2018-05-21T09:13:02.728Z,4.20
2018-05-21T09:15:31.342Z,3.70
2018-05-21T09:18:00.233Z,3.90
2018-05-21T09:20:28.445Z,3.80
2018-05-21T09:22:55.933Z,3.77
2018-05-21T09:25:24.168Z,3.90
2018-05-21T09:27:54.835Z,3.90
2018-05-21T09:30:24.785Z,3.70
2018-05-21T09:32:54.021Z,3.47
2018-05-21T09:35:21.520Z,4.23
2018-05-21T09:37:48.973Z,4.03
2018-05-21T09:40:17.028Z,4.00
2018-05-21T09:42:45.918Z,4.30
2018-05-21T09:45:13.409Z,4.60
2018-05-21T09:47:41.654Z,3.93
2018-05-21T09:50:09.589Z,3.93
2018-05-21T09:52:39.161Z,4.30
2018-05-21T09:55:07.397Z,3.90
2018-05-21T09:57:34.886Z,4.47
2018-05-21T10:00:03.864Z,5.37
2018-05-21T10:02:32.156Z,4.20
2018-05-21T10:05:00.468Z,4.60
2018-05-21T10:07:27.943Z,4.47
2018-05-21T10:09:56.399Z,4.57
2018-05-21T10:12:23.893Z,4.23
2018-05-21T10:14:51.414Z,3.77
2018-05-21T10:17:21.269Z,4.83
2018-05-21T10:19:49.703Z,4.70
2018-05-21T10:22:17.158Z,4.33
2018-05-21T10:24:44.622Z,4.57
2018-05-21T10:27:12.136Z,4.63
2018-05-21T10:29:42.051Z,4.43
2018-05-21T10:32:09.504Z,4.13
2018-05-21T10:34:38.676Z,4.20
2018-05-21T10:37:06.244Z,4.27
2018-05-21T10:39:34.413Z,4.80
2018-05-21T10:42:02.820Z,4.60
2018-05-21T10:44:34.282Z,4.67
2018-05-21T10:47:02.410Z,4.10
2018-05-21T10:49:29.910Z,4.30
2018-05-21T10:51:58.129Z,4.50
2018-05-21T10:54:25.637Z,4.30
2018-05-21T10:56:53.885Z,4.27
2018-05-21T10:59:21.340Z,4.27
2018-05-21T11:01:49.586Z,4.70
2018-05-21T11:04:17.054Z,4.83
2018-05-21T11:06:44.521Z,4.90
2018-05-21T11:09:12.013Z,3.80
2018-05-21T11:11:40.237Z,4.70
2018-05-21T11:14:07.731Z,3.70
2018-05-21T11:16:35.216Z,4.43
2018-05-21T11:19:02.683Z,4.20
2018-05-21T11:21:30.136Z,3.80
2018-05-21T11:23:57.617Z,4.47
2018-05-21T11:26:25.085Z,3.97
2018-05-21T11:28:52.554Z,4.30
2018-05-21T11:31:20.035Z,3.93
2018-05-21T11:33:48.272Z,4.10
2018-05-21T11:36:15.740Z,4.30
2018-05-21T11:38:43.213Z,4.60
2018-05-21T11:41:11.442Z,4.60
2018-05-21T11:43:38.908Z,4.10
2018-05-21T11:46:06.389Z,4.80
2018-05-21T11:48:33.865Z,4.30
2018-05-21T11:51:02.115Z,4.63
2018-05-21T11:53:29.591Z,4.07
2018-05-21T11:55:57.044Z,4.30
2018-05-21T11:58:25.289Z,5.53
2018-05-21T12:00:52.785Z,3.90
2018-05-21T12:03:21.016Z,4.03
2018-05-21T12:05:48.493Z,4.37
2018-05-21T12:08:15.965Z,4.60
2018-05-21T12:10:44.200Z,4.27
2018-05-21T12:13:11.670Z,4.40
2018-05-21T12:15:39.133Z,4.30
2018-05-21T12:18:06.605Z,3.87
2018-05-21T12:20:34.853Z,4.77
2018-05-21T12:23:02.312Z,4.30
2018-05-21T12:25:29.785Z,3.60
2018-05-21T12:27:57.347Z,4.10
2018-05-21T12:30:24.822Z,4.10
2018-05-21T12:32:53.060Z,3.87
2018-05-21T12:35:20.545Z,3.87
2018-05-21T12:37:48.787Z,3.83
2018-05-21T12:40:16.242Z,3.80
2018-05-21T12:42:43.722Z,3.70
2018-05-21T12:45:11.185Z,3.97
2018-05-21T12:47:38.645Z,3.90
2018-05-21T12:50:06.885Z,3.57
2018-05-21T12:52:34.353Z,3.73
2018-05-21T12:55:01.815Z,4.27
2018-05-21T12:57:29.286Z,3.83
2018-05-21T12:59:56.786Z,3.60
2018-05-21T13:02:24.299Z,3.87
2018-05-21T13:04:51.775Z,3.80
2018-05-21T13:07:20.009Z,4.00
2018-05-21T13:09:47.473Z,4.30
2018-05-21T13:12:15.033Z,3.40
2018-05-21T13:14:44.004Z,3.60
2018-05-21T13:17:11.477Z,3.87
2018-05-21T13:19:38.984Z,3.50
2018-05-21T13:22:06.448Z,4.07
2018-05-21T13:24:33.916Z,3.77
2018-05-21T13:27:01.381Z,3.53
2018-05-21T13:29:28.874Z,3.63
2018-05-21T13:31:56.357Z,3.67
2018-05-21T13:34:24.593Z,3.40
2018-05-21T13:36:53.570Z,3.73
2018-05-21T13:39:21.081Z,3.60
2018-05-21T13:41:49.305Z,3.50
2018-05-21T13:44:16.765Z,3.83
2018-05-21T13:46:44.245Z,3.50
2018-05-21T13:49:11.714Z,3.50
2018-05-21T13:51:39.945Z,3.53
2018-05-21T13:54:07.425Z,3.40
2018-05-21T13:56:35.476Z,3.50
2018-05-21T13:59:02.980Z,3.53
2018-05-21T14:01:31.204Z,3.57
2018-05-21T14:03:58.661Z,4.33
2018-05-21T14:06:26.155Z,3.83
2018-05-21T14:08:54.394Z,3.33
2018-05-21T14:11:21.842Z,3.67
2018-05-21T14:13:49.329Z,3.90
2018-05-21T14:16:17.595Z,3.30
2018-05-21T14:18:45.027Z,3.27
2018-05-21T14:21:12.504Z,3.57
2018-05-21T14:23:39.978Z,3.80
2018-05-21T14:26:07.456Z,3.90
2018-05-21T14:28:35.713Z,3.37
2018-05-21T14:31:03.216Z,3.47
2018-05-21T14:33:30.677Z,3.00
2018-05-21T14:35:58.161Z,3.33
2018-05-21T14:38:25.643Z,3.33
2018-05-21T14:40:56.113Z,3.97
2018-05-21T14:43:23.697Z,3.43
2018-05-21T14:45:51.166Z,3.53
2018-05-21T14:48:18.627Z,3.07
2018-05-21T14:50:46.121Z,3.77
2018-05-21T14:53:14.353Z,3.90
2018-05-21T14:55:41.818Z,3.80
2018-05-21T14:58:09.290Z,3.80
2018-05-21T15:00:37.513Z,3.60
2018-05-21T15:03:05.005Z,3.37
2018-05-21T15:05:32.461Z,3.63
2018-05-21T15:07:59.925Z,3.80
2018-05-21T15:10:27.414Z,3.70
2018-05-21T15:12:54.893Z,3.90
2018-05-21T15:15:22.360Z,3.33
2018-05-21T15:17:49.841Z,3.43
2018-05-21T15:20:17.341Z,3.50
2018-05-21T15:22:44.806Z,3.90
2018-05-21T15:25:12.280Z,3.23
2018-05-21T15:27:39.756Z,3.60
2018-05-21T15:30:07.236Z,3.53
2018-05-21T15:32:34.714Z,3.90
2018-05-21T15:35:02.948Z,3.70
2018-05-21T15:37:30.421Z,3.50
2018-05-21T15:39:57.888Z,3.50
2018-05-21T15:42:25.372Z,3.83
2018-05-21T15:44:52.839Z,3.70
2018-05-21T15:47:20.319Z,3.50
2018-05-21T15:49:47.793Z,4.00
2018-05-21T15:52:16.060Z,3.70
2018-05-21T15:54:43.518Z,3.57
2018-05-21T15:57:11.025Z,3.80
2018-05-21T15:59:39.252Z,3.00
2018-05-21T16:02:06.750Z,3.63
2018-05-21T16:04:34.980Z,4.20
2018-05-21T16:07:02.468Z,3.33
2018-05-21T16:09:30.717Z,4.00
2018-05-21T16:11:58.226Z,3.53
2018-05-21T16:14:25.692Z,3.67
2018-05-21T16:16:53.217Z,4.10
2018-05-21T16:19:21.461Z,3.50
2018-05-21T16:21:48.951Z,3.87
2018-05-21T16:24:17.178Z,3.80
2018-05-21T16:26:44.655Z,3.40
2018-05-21T16:29:12.123Z,3.40
2018-05-21T16:31:39.605Z,3.50
2018-05-21T16:34:07.842Z,3.90
2018-05-21T16:36:35.334Z,4.10
2018-05-21T16:39:03.561Z,3.90
2018-05-21T16:41:31.149Z,3.60
2018-05-21T16:43:59.293Z,3.53
2018-05-21T16:46:26.760Z,4.37
2018-05-21T16:48:55.012Z,3.40
2018-05-21T16:51:22.483Z,3.90
2018-05-21T16:53:50.003Z,3.70
2018-05-21T16:56:18.197Z,3.50
2018-05-21T16:58:45.676Z,3.50
2018-05-21T17:01:13.137Z,3.87
2018-05-21T17:03:40.608Z,3.80
2018-05-21T17:06:08.074Z,3.67
2018-05-21T17:08:36.333Z,3.50
2018-05-21T17:11:03.792Z,3.50
2018-05-21T17:13:31.404Z,3.90
2018-05-21T17:15:58.889Z,3.93
2018-05-21T17:18:26.351Z,3.63
2018-05-21T17:20:53.839Z,3.93
2018-05-21T17:23:22.077Z,3.40
2018-05-21T17:25:49.556Z,3.87
2018-05-21T17:28:17.040Z,3.83
2018-05-21T17:30:45.285Z,4.17
2018-05-21T17:33:13.547Z,3.30
2018-05-21T17:35:41.047Z,4.03
2018-05-21T17:38:09.264Z,4.10
2018-05-21T17:40:36.731Z,3.33
2018-05-21T17:43:04.209Z,3.70
2018-05-21T17:45:32.432Z,3.83
2018-05-21T17:47:59.896Z,3.70
2018-05-21T17:50:27.388Z,3.30
2018-05-21T17:52:54.848Z,3.80
2018-05-21T17:55:22.325Z,4.00
2018-05-21T17:57:50.581Z,3.67
2018-05-21T18:00:18.045Z,3.50
2018-05-21T18:02:46.268Z,3.60
2018-05-21T18:05:13.741Z,4.10
2018-05-21T18:07:41.239Z,4.03
2018-05-21T18:10:09.486Z,4.27
2018-05-21T18:12:36.958Z,3.37
2018-05-21T18:15:05.182Z,3.80
2018-05-21T18:17:32.668Z,2.90
2018-05-21T18:20:00.120Z,3.80
2018-05-21T18:22:27.598Z,3.70
2018-05-21T18:24:55.077Z,3.67
2018-05-21T18:27:23.305Z,3.80
2018-05-21T18:29:50.781Z,3.10
2018-05-21T18:32:18.258Z,3.50
2018-05-21T18:34:46.495Z,3.77
2018-05-21T18:37:13.968Z,3.50
2018-05-21T18:39:42.222Z,4.03
2018-05-21T18:42:09.686Z,4.10
2018-05-21T18:44:37.149Z,4.70
2018-05-21T18:47:04.629Z,5.30
2018-05-21T18:49:32.098Z,5.40
2018-05-21T18:52:00.326Z,4.80
2018-05-21T18:54:27.813Z,4.50
2018-05-21T18:56:55.295Z,3.70
2018-05-21T18:59:23.533Z,4.40
2018-05-21T19:01:51.014Z,4.10
2018-05-21T19:04:19.247Z,4.03
2018-05-21T19:06:46.718Z,4.13
2018-05-21T19:09:14.183Z,3.60
2018-05-21T19:11:41.654Z,3.87
2018-05-21T19:14:09.914Z,3.40
2018-05-21T19:16:37.421Z,4.57
2018-05-21T19:19:04.905Z,4.40
2018-05-21T19:21:32.382Z,4.10
2018-05-21T19:23:59.833Z,4.70
2018-05-21T19:26:27.346Z,3.80
2018-05-21T19:28:54.810Z,4.37
2018-05-21T19:31:22.333Z,4.10
2018-05-21T19:33:50.636Z,4.00
2018-05-21T19:36:18.107Z,3.97
2018-05-21T19:38:45.561Z,4.00
2018-05-21T19:41:13.057Z,4.53
2018-05-21T19:43:40.584Z,3.53
2018-05-21T19:46:08.086Z,4.03
2018-05-21T19:48:35.604Z,3.50
2018-05-21T19:51:03.085Z,3.90
2018-05-21T19:53:30.574Z,3.27
2018-05-21T19:55:58.038Z,3.47
2018-05-21T19:58:25.511Z,3.70
2018-05-21T20:00:52.985Z,5.57
2018-05-21T20:03:20.453Z,5.33
2018-05-21T20:05:47.923Z,5.00
2018-05-21T20:08:15.418Z,5.27
2018-05-21T20:10:42.965Z,5.93
2018-05-21T20:13:11.193Z,6.57
2018-05-21T20:15:38.669Z,5.90
2018-05-21T20:18:07.017Z,6.60
2018-05-21T20:20:42.276Z,6.50
2018-05-21T20:23:09.745Z,6.70
2018-05-21T20:25:37.209Z,6.67
2018-05-21T20:28:04.703Z,7.37
2018-05-21T20:30:32.231Z,7.20
2018-05-21T20:33:00.462Z,7.50
2018-05-21T20:35:27.970Z,7.07
2018-05-21T20:37:57.373Z,7.60
2018-05-21T20:40:27.205Z,7.27
2018-05-21T20:42:54.821Z,7.37
2018-05-21T20:45:22.586Z,7.70
2018-05-21T20:47:50.729Z,7.50
2018-05-21T20:50:19.069Z,7.50
2018-05-21T20:52:50.827Z,7.60
2018-05-21T20:55:24.073Z,7.50
2018-05-21T20:57:52.105Z,7.60
2018-05-21T21:00:21.779Z,7.23
2018-05-21T21:02:50.024Z,9.00
2018-05-21T21:05:17.523Z,9.07
2018-05-21T21:07:46.453Z,8.80
2018-05-21T21:10:15.020Z,8.10
2018-05-21T21:12:47.840Z,8.40
2018-05-21T21:15:15.319Z,8.60
2018-05-21T21:17:42.797Z,9.37
2018-05-21T21:20:11.049Z,8.20
2018-05-21T21:22:41.168Z,9.37
2018-05-21T21:25:09.302Z,9.10
2018-05-21T21:27:37.560Z,11.70
2018-05-21T21:30:05.945Z,11.20
2018-05-21T21:32:33.455Z,10.67
2018-05-21T21:35:00.912Z,10.83
2018-05-21T21:37:29.224Z,9.70
2018-05-21T21:39:56.686Z,10.27
2018-05-21T21:42:24.172Z,10.10
2018-05-21T21:44:51.640Z,11.60
2018-05-21T21:47:19.127Z,11.37
2018-05-21T21:49:47.409Z,11.07
2018-05-21T21:52:15.641Z,11.00
2018-05-21T21:54:43.105Z,9.07
2018-05-21T21:57:10.584Z,9.00
2018-05-21T21:59:38.814Z,8.90
2018-05-21T22:02:06.285Z,8.47
2018-05-21T22:04:33.756Z,8.00
2018-05-21T22:07:01.230Z,8.33
2018-05-21T22:09:28.765Z,8.20
2018-05-21T22:11:56.237Z,7.60
2018-05-21T22:14:24.465Z,8.00
2018-05-21T22:16:51.933Z,8.10
2018-05-21T22:19:19.409Z,8.10
2018-05-21T22:21:46.868Z,8.37
2018-05-21T22:24:15.091Z,8.67
2018-05-21T22:26:42.587Z,9.40
2018-05-21T22:29:10.041Z,9.77
2018-05-21T22:31:37.517Z,10.97
2018-05-21T22:34:05.793Z,10.57
2018-05-21T22:36:33.260Z,11.53
2018-05-21T22:39:01.496Z,10.73
2018-05-21T22:41:28.977Z,10.60
2018-05-21T22:43:56.465Z,12.27
2018-05-21T22:46:23.941Z,11.27
2018-05-21T22:48:51.411Z,12.03
2018-05-21T22:51:18.881Z,11.73
2018-05-21T22:53:46.373Z,11.90
2018-05-21T22:56:14.601Z,12.77
2018-05-21T22:58:42.081Z,12.80
2018-05-21T23:01:09.554Z,10.40
2018-05-21T23:03:37.789Z,10.87
2018-05-21T23:06:05.277Z,10.30
2018-05-21T23:08:32.736Z,9.87
2018-05-21T23:11:00.225Z,10.17
2018-05-21T23:13:27.728Z,10.30
2018-05-21T23:15:55.190Z,10.20
2018-05-21T23:18:22.654Z,10.30
2018-05-21T23:20:50.171Z,10.30
2018-05-21T23:23:17.630Z,11.20
2018-05-21T23:25:45.105Z,9.30
2018-05-21T23:28:12.680Z,10.50
2018-05-21T23:30:40.137Z,10.37
2018-05-21T23:33:07.597Z,8.87
2018-05-21T23:35:35.077Z,10.57
2018-05-21T23:38:03.311Z,9.80
2018-05-21T23:40:30.788Z,11.10
2018-05-21T23:42:58.260Z,10.80
2018-05-21T23:45:25.752Z,12.07
2018-05-21T23:47:53.231Z,11.17
2018-05-21T23:50:20.701Z,10.80
2018-05-21T23:52:48.171Z,11.17
2018-05-21T23:55:15.950Z,11.60
2018-05-21T23:57:43.401Z,11.37
